NCAR-RAP Real-Time Weather Data

Output produced by METARs form (17 November 2017  17:47 UTC)
found at http://weather.rap.ucar.edu/surface/
 
Conditions at: KSRQ observed 17 November 2017  16:53 UTC
Temperature: 24.4°C (76°F)
Dewpoint: 12.8°C (55°F) [RH = 48%]
Pressure (altimeter): 30.07 inches Hg (1018.4 mb)
[Sea-level pressure: 1018.1 mb]
Winds: from the NE (50 degrees) at 6 MPH (5 knots; 2.6 m/s)
Visibility: 10 or more miles (16+ km)
Ceiling: at least 12,000 feet AGL
Clouds: sky clear below 12,000 feet AGL
Present Weather: no significant weather observed at this time
KSRQ 171653Z 05005KT 10SM CLR 24/13 A3007 RMK AO2 SLP181 T02440128

Conditions at: KSRQ observed 17 November 2017  15:53 UTC
Temperature: 22.8°C (73°F)
Dewpoint: 12.2°C (54°F) [RH = 51%]
Pressure (altimeter): 30.08 inches Hg (1018.7 mb)
[Sea-level pressure: 1018.6 mb]
Winds: from the ENE (60 degrees) at 9 MPH (8 knots; 4.2 m/s)
Visibility: 10 or more miles (16+ km)
Ceiling: at least 12,000 feet AGL
Clouds: sky clear below 12,000 feet AGL
Present Weather: no significant weather observed at this time
KSRQ 171553Z 06008KT 10SM CLR 23/12 A3008 RMK AO2 SLP186 T02280122

Conditions at: KSRQ observed 17 November 2017  14:53 UTC
Temperature: 21.1°C (70°F)
Dewpoint: 12.8°C (55°F) [RH = 59%]
Pressure (altimeter): 30.09 inches Hg (1019.0 mb)
[Sea-level pressure: 1018.8 mb]
Winds: from the ENE (70 degrees) at 12 MPH (10 knots; 5.2 m/s)
Visibility: 10 or more miles (16+ km)
Ceiling: at least 12,000 feet AGL
Clouds: sky clear below 12,000 feet AGL
Present Weather: no significant weather observed at this time
KSRQ 171453Z 07010KT 10SM CLR 21/13 A3009 RMK AO2 SLP188 T02110128 51008

Conditions at: KSRQ observed 17 November 2017  13:53 UTC
Temperature: 18.9°C (66°F)
Dewpoint: 11.7°C (53°F) [RH = 63%]
Pressure (altimeter): 30.08 inches Hg (1018.7 mb)
[Sea-level pressure: 1018.6 mb]
Winds: from the NE (50 degrees) at 9 MPH (8 knots; 4.2 m/s)
Visibility: 10 or more miles (16+ km)
Ceiling: at least 12,000 feet AGL
Clouds: sky clear below 12,000 feet AGL
Present Weather:
SOME DATA ABOVE MAY BE INACCURATE!!!
"$" is an indication the sensor requires maintenance
KSRQ 171353Z 05008KT 340V080 10SM CLR 19/12 A3008 RMK AO2 SLP186 T01890117 $

Conditions at: KSRQ observed 17 November 2017  13:14 UTC
Temperature: 17.2°C (63°F)
Dewpoint: 10.0°C (50°F) [RH = 63%]
Pressure (altimeter): 30.08 inches Hg (1018.7 mb)
Winds: from the NE (40 degrees) at 10 MPH (9 knots; 4.7 m/s)
gusting to 18 MPH (16 knots; 8.3 m/s)
Visibility: missing
Ceiling: at least 12,000 feet AGL
Clouds: sky clear below 12,000 feet AGL
Present Weather:
SOME DATA ABOVE MAY BE INACCURATE!!!
"$" is an indication the sensor requires maintenance
KSRQ 171314Z 04009G16KT CLR 17/10 A3008 RMK AO2 T01720100 $

Conditions at: KSRQ observed 17 November 2017  13:06 UTC
Temperature: 17.2°C (63°F)
Dewpoint: 10.0°C (50°F) [RH = 63%]
Pressure (altimeter): 30.08 inches Hg (1018.7 mb)
Winds: from the NE (50 degrees) at 13 MPH (11 knots; 5.7 m/s)
Visibility: 0.75 miles (1.21 km)
Ceiling: at least 12,000 feet AGL
Clouds: sky clear below 12,000 feet AGL
Present Weather: HZ  (haze)
KSRQ 171306Z 05011KT 3/4SM HZ CLR 17/10 A3008 RMK AO2 T01720100

Conditions at: KSRQ observed 17 November 2017  12:53 UTC
Temperature: 16.7°C (62°F)
Dewpoint: 10.0°C (50°F) [RH = 65%]
Pressure (altimeter): 30.08 inches Hg (1018.7 mb)
[Sea-level pressure: 1018.5 mb]
Winds: from the NE (50 degrees) at 10 MPH (9 knots; 4.7 m/s)
Visibility: 10 or more miles (16+ km)
Ceiling: at least 12,000 feet AGL
Clouds: sky clear below 12,000 feet AGL
Present Weather: no significant weather observed at this time
KSRQ 171253Z 05009KT 10SM CLR 17/10 A3008 RMK AO2 SLP185 T01670100

Conditions at: KSRQ observed 17 November 2017  11:53 UTC
Temperature: 15.0°C (59°F)
Dewpoint: 9.4°C (49°F) [RH = 69%]
Pressure (altimeter): 30.07 inches Hg (1018.4 mb)
[Sea-level pressure: 1018.0 mb]
Winds: from the NE (50 degrees) at 8 MPH (7 knots; 3.6 m/s)
Visibility: 10 or more miles (16+ km)
Ceiling: at least 12,000 feet AGL
Clouds: sky clear below 12,000 feet AGL
Present Weather: no significant weather observed at this time
KSRQ 171153Z 05007KT 10SM CLR 15/09 A3007 RMK AO2 SLP180 T01500094 10156 20150 53007

Conditions at: KSRQ observed 17 November 2017  10:53 UTC
Temperature: 15.6°C (60°F)
Dewpoint: 9.4°C (49°F) [RH = 67%]
Pressure (altimeter): 30.05 inches Hg (1017.7 mb)
[Sea-level pressure: 1017.4 mb]
Winds: from the NNE (30 degrees) at 9 MPH (8 knots; 4.2 m/s)
Visibility: 10 or more miles (16+ km)
Ceiling: at least 12,000 feet AGL
Clouds: sky clear below 12,000 feet AGL
Present Weather: no significant weather observed at this time
KSRQ 171053Z 03008KT 10SM CLR 16/09 A3005 RMK AO2 SLP174 T01560094

Conditions at: KSRQ observed 17 November 2017  10:21 UTC
Temperature: 15.6°C (60°F)
Dewpoint: 9.4°C (49°F) [RH = 67%]
Pressure (altimeter): 30.05 inches Hg (1017.7 mb)
Winds: from the NE (40 degrees) at 8 MPH (7 knots; 3.6 m/s)
Visibility: 10 or more miles (16+ km)
Ceiling: at least 12,000 feet AGL
Clouds: few clouds at 200 feet AGL
Present Weather:
SOME DATA ABOVE MAY BE INACCURATE!!!
"$" is an indication the sensor requires maintenance
KSRQ 171021Z AUTO 04007KT 10SM FEW002 16/09 A3005 RMK AO2 T01560094 $

Conditions at: KSRQ observed 17 November 2017  09:53 UTC
Temperature: 15.6°C (60°F)
Dewpoint: 10.0°C (50°F) [RH = 69%]
Pressure (altimeter): 30.04 inches Hg (1017.4 mb)
[Sea-level pressure: 1017.2 mb]
Winds: from the NNE (30 degrees) at 7 MPH (6 knots; 3.1 m/s)
Visibility: 10 or more miles (16+ km)
Ceiling: at least 12,000 feet AGL
Clouds: few clouds at 4800 feet AGL
Present Weather:
SOME DATA ABOVE MAY BE INACCURATE!!!
"$" is an indication the sensor requires maintenance
KSRQ 170953Z AUTO 03006KT 10SM FEW048 16/10 A3004 RMK AO2 SLP172 T01560100 $

Conditions at: KSRQ observed 17 November 2017  08:53 UTC
Temperature: 15.6°C (60°F)
Dewpoint: 11.1°C (52°F) [RH = 75%]
Pressure (altimeter): 30.04 inches Hg (1017.4 mb)
[Sea-level pressure: 1017.3 mb]
Winds: from the NE (40 degrees) at 7 MPH (6 knots; 3.1 m/s)
Visibility: 10 or more miles (16+ km)
Ceiling: unknown
Clouds: missing
Present Weather:
SOME DATA ABOVE MAY BE INACCURATE!!!
"$" is an indication the sensor requires maintenance
KSRQ 170853Z AUTO 04006KT 10SM 16/11 A3004 RMK AO2 SLP173 T01560111 55002 $

Conditions at: KSRQ observed 17 November 2017  07:53 UTC
Temperature: 15.6°C (60°F)
Dewpoint: 12.8°C (55°F) [RH = 83%]
Pressure (altimeter): 30.04 inches Hg (1017.4 mb)
[Sea-level pressure: 1017.1 mb]
Winds: from the NNE (30 degrees) at 7 MPH (6 knots; 3.1 m/s)
Visibility: 10 or more miles (16+ km)
Ceiling: unknown
Clouds: missing
Present Weather:
SOME DATA ABOVE MAY BE INACCURATE!!!
"$" is an indication the sensor requires maintenance
KSRQ 170753Z AUTO 03006KT 10SM 16/13 A3004 RMK AO2 SLP171 T01560128 $

Conditions at: KSRQ observed 17 November 2017  06:53 UTC
Temperature: 15.0°C (59°F)
Dewpoint: 12.8°C (55°F) [RH = 87%]
Pressure (altimeter): 30.05 inches Hg (1017.7 mb)
[Sea-level pressure: 1017.3 mb]
Winds: from the ENE (60 degrees) at 6 MPH (5 knots; 2.6 m/s)
Visibility: 10 or more miles (16+ km)
Ceiling: unknown
Clouds: missing
Present Weather:
SOME DATA ABOVE MAY BE INACCURATE!!!
"$" is an indication the sensor requires maintenance
KSRQ 170653Z AUTO 06005KT 10SM 15/13 A3005 RMK AO2 SLP173 T01500128 $

Conditions at: KSRQ observed 17 November 2017  05:53 UTC
Temperature: 15.6°C (60°F)
Dewpoint: 12.2°C (54°F) [RH = 80%]
Pressure (altimeter): 30.05 inches Hg (1017.7 mb)
[Sea-level pressure: 1017.4 mb]
Winds: from the NE (50 degrees) at 5 MPH (4 knots; 2.1 m/s)
Visibility: 10 or more miles (16+ km)
Ceiling: at least 12,000 feet AGL
Clouds: sky clear below 12,000 feet AGL
Present Weather: automated observation with no human augmentation;
there may or may not be significant weather present at this time
KSRQ 170553Z AUTO 05004KT 10SM CLR 16/12 A3005 RMK AO2 SLP174 T01560122 10189 20156 58002

Conditions at: KSRQ observed 17 November 2017  04:53 UTC
Temperature: 16.1°C (61°F)
Dewpoint: 12.8°C (55°F) [RH = 81%]
Pressure (altimeter): 30.05 inches Hg (1017.7 mb)
[Sea-level pressure: 1017.6 mb]
Winds: from the NE (40 degrees) at 6 MPH (5 knots; 2.6 m/s)
Visibility: 10 or more miles (16+ km)
Ceiling: at least 12,000 feet AGL
Clouds: sky clear below 12,000 feet AGL
Present Weather: automated observation with no human augmentation;
there may or may not be significant weather present at this time
KSRQ 170453Z AUTO 04005KT 10SM CLR 16/13 A3005 RMK AO2 SLP176 T01610128 402440156

Conditions at: KSRQ observed 17 November 2017  03:53 UTC
Temperature: 16.7°C (62°F)
Dewpoint: 12.8°C (55°F) [RH = 78%]
Pressure (altimeter): 30.05 inches Hg (1017.7 mb)
[Sea-level pressure: 1017.5 mb]
Winds: from the NE (40 degrees) at 6 MPH (5 knots; 2.6 m/s)
Visibility: 10 or more miles (16+ km)
Ceiling: at least 12,000 feet AGL
Clouds: few clouds at 200 feet AGL
Present Weather: no significant weather observed at this time
KSRQ 170353Z 04005KT 10SM FEW002 17/13 A3005 RMK AO2 SLP175 T01670128

Conditions at: KSRQ observed 17 November 2017  02:53 UTC
Temperature: 17.2°C (63°F)
Dewpoint: 13.9°C (57°F) [RH = 81%]
Pressure (altimeter): 30.05 inches Hg (1017.7 mb)
[Sea-level pressure: 1017.6 mb]
Winds: from the NNE (20 degrees) at 5 MPH (4 knots; 2.1 m/s)
Visibility: 10 or more miles (16+ km)
Ceiling: at least 12,000 feet AGL
Clouds: sky clear below 12,000 feet AGL
Present Weather: no significant weather observed at this time
KSRQ 170253Z 02004KT 10SM CLR 17/14 A3005 RMK AO2 SLP176 T01720139 51014

Conditions at: KSRQ observed 17 November 2017  01:53 UTC
Temperature: 18.3°C (65°F)
Dewpoint: 13.9°C (57°F) [RH = 76%]
Pressure (altimeter): 30.04 inches Hg (1017.4 mb)
[Sea-level pressure: 1017.2 mb]
Winds: from the NNE (20 degrees) at 6 MPH (5 knots; 2.6 m/s)
Visibility: 10 or more miles (16+ km)
Ceiling: at least 12,000 feet AGL
Clouds: sky clear below 12,000 feet AGL
Present Weather: no significant weather observed at this time
KSRQ 170153Z 02005KT 10SM CLR 18/14 A3004 RMK AO2 SLP172 T01830139

Conditions at: KSRQ observed 17 November 2017  00:53 UTC
Temperature: 18.3°C (65°F)
Dewpoint: 14.4°C (58°F) [RH = 78%]
Pressure (altimeter): 30.03 inches Hg (1017.0 mb)
[Sea-level pressure: 1016.7 mb]
Winds: from the N (360 degrees) at 6 MPH (5 knots; 2.6 m/s)
Visibility: 10 or more miles (16+ km)
Ceiling: at least 12,000 feet AGL
Clouds: sky clear below 12,000 feet AGL
Present Weather: no significant weather observed at this time
KSRQ 170053Z 36005KT 10SM CLR 18/14 A3003 RMK AO2 SLP167 T01830144

Conditions at: KSRQ observed 16 November 2017  23:53 UTC
Temperature: 18.9°C (66°F)
Dewpoint: 15.6°C (60°F) [RH = 81%]
Pressure (altimeter): 30.01 inches Hg (1016.3 mb)
[Sea-level pressure: 1016.3 mb]
Winds: from the N (350 degrees) at 7 MPH (6 knots; 3.1 m/s)
Visibility: 10 or more miles (16+ km)
Ceiling: at least 12,000 feet AGL
Clouds: sky clear below 12,000 feet AGL
Present Weather: no significant weather observed at this time
KSRQ 162353Z 35006KT 10SM CLR 19/16 A3001 RMK AO2 SLP163 T01890156 10244 20189 53015

Conditions at: KSRQ observed 16 November 2017  22:53 UTC
Temperature: 19.4°C (67°F)
Dewpoint: 15.0°C (59°F) [RH = 76%]
Pressure (altimeter): 29.99 inches Hg (1015.7 mb)
[Sea-level pressure: 1015.4 mb]
Winds: from the NNW (340 degrees) at 5 MPH (4 knots; 2.1 m/s)
Visibility: 10 or more miles (16+ km)
Ceiling: at least 12,000 feet AGL
Clouds: sky clear below 12,000 feet AGL
Present Weather: no significant weather observed at this time
KSRQ 162253Z 34004KT 10SM CLR 19/15 A2999 RMK AO2 SLP154 T01940150

Conditions at: KSRQ observed 16 November 2017  21:53 UTC
Temperature: 21.7°C (71°F)
Dewpoint: 15.6°C (60°F) [RH = 68%]
Pressure (altimeter): 29.98 inches Hg (1015.3 mb)
[Sea-level pressure: 1014.9 mb]
Winds: from the NW (320 degrees) at 9 MPH (8 knots; 4.2 m/s)
Visibility: 10 or more miles (16+ km)
Ceiling: at least 12,000 feet AGL
Clouds: sky clear below 12,000 feet AGL
Present Weather: no significant weather observed at this time
KSRQ 162153Z 32008KT 10SM CLR 22/16 A2998 RMK AO2 SLP149 T02170156

Conditions at: KSRQ observed 16 November 2017  20:53 UTC
Temperature: 23.9°C (75°F)
Dewpoint: 15.0°C (59°F) [RH = 57%]
Pressure (altimeter): 29.97 inches Hg (1015.0 mb)
[Sea-level pressure: 1014.7 mb]
Winds: from the N (350 degrees) at 8 MPH (7 knots; 3.6 m/s)
Visibility: 10 or more miles (16+ km)
Ceiling: at least 12,000 feet AGL
Clouds: sky clear below 12,000 feet AGL
Present Weather: no significant weather observed at this time
KSRQ 162053Z 35007KT 10SM CLR 24/15 A2997 RMK AO2 SLP147 T02390150 55007

Conditions at: KSRQ observed 16 November 2017  19:53 UTC
Temperature: 24.4°C (76°F)
Dewpoint: 15.6°C (60°F) [RH = 58%]
Pressure (altimeter): 29.96 inches Hg (1014.6 mb)
[Sea-level pressure: 1014.5 mb]
Winds: from the N (360 degrees) at 9 MPH (8 knots; 4.2 m/s)
Visibility: 10 or more miles (16+ km)
Ceiling: at least 12,000 feet AGL
Clouds: sky clear below 12,000 feet AGL
Present Weather: no significant weather observed at this time
KSRQ 161953Z 36008KT 10SM CLR 24/16 A2996 RMK AO2 SLP145 T02440156

Conditions at: KSRQ observed 16 November 2017  18:53 UTC
Temperature: 23.3°C (74°F)
Dewpoint: 15.6°C (60°F) [RH = 62%]
Pressure (altimeter): 29.97 inches Hg (1015.0 mb)
[Sea-level pressure: 1014.9 mb]
Winds: from the N (10 degrees) at 9 MPH (8 knots; 4.2 m/s)
Visibility: 10 or more miles (16+ km)
Ceiling: at least 12,000 feet AGL
Clouds: sky clear below 12,000 feet AGL
Present Weather: no significant weather observed at this time
KSRQ 161853Z 01008KT 10SM CLR 23/16 A2997 RMK AO2 SLP149 T02330156

Conditions at: KSRQ observed 16 November 2017  17:53 UTC
Temperature: 23.3°C (74°F)
Dewpoint: 15.6°C (60°F) [RH = 62%]
Pressure (altimeter): 29.99 inches Hg (1015.7 mb)
[Sea-level pressure: 1015.4 mb]
Winds: from the NNE (20 degrees) at 7 MPH (6 knots; 3.1 m/s)
Visibility: 10 or more miles (16+ km)
Ceiling: at least 12,000 feet AGL
Clouds: sky clear below 12,000 feet AGL
Present Weather: no significant weather observed at this time
KSRQ 161753Z 02006KT 10SM CLR 23/16 A2999 RMK AO2 SLP154 T02330156 10233 20156 58023